Time;durP1;ratioP1;P1;durP2;ratioP2;P2;SDS_P1;SDS_P2;PMS_P1;PMS_P2;Temp;Humidity;BMP_temperature;BMP_pressure;BME280_temperature;BME280_humidity;BME280_pressure;Samples;Min_cycle;Max_cycle;Signal;HPM_P1;HPM_P2
2021/09/18 00:02:22;;;;;;;6.45;4.07;;;11.50;99.90;;;;;;4991006;28;20050;-66
2021/09/18 00:04:50;;;;;;;4.15;3.75;;;11.50;99.90;;;;;;4991265;28;20054;-69
2021/09/18 00:07:17;;;;;;;6.10;3.85;;;11.50;99.90;;;;;;4991218;28;20081;-67
2021/09/18 00:09:44;;;;;;;5.85;4.15;;;11.40;99.90;;;;;;4989809;28;20046;-67
2021/09/18 00:12:11;;;;;;;5.82;3.58;;;11.40;99.90;;;;;;4991226;28;20125;-67
2021/09/18 00:14:39;;;;;;;6.15;4.22;;;11.40;99.90;;;;;;4990982;28;20053;-69
2021/09/18 00:17:07;;;;;;;3.70;3.40;;;11.40;99.90;;;;;;4991118;28;20401;-67
2021/09/18 00:19:35;;;;;;;9.32;4.43;;;11.40;99.90;;;;;;4989749;28;20050;-66
2021/09/18 00:22:02;;;;;;;4.60;3.78;;;11.40;99.90;;;;;;4990932;28;20054;-67
2021/09/18 00:24:29;;;;;;;6.40;3.83;;;11.30;99.90;;;;;;4991035;28;20084;-70
2021/09/18 00:26:57;;;;;;;5.78;3.78;;;11.30;99.90;;;;;;4991107;28;20492;-66
2021/09/18 00:29:24;;;;;;;5.88;3.65;;;11.30;99.90;;;;;;4989914;28;20339;-68
2021/09/18 00:31:51;;;;;;;6.95;4.32;;;11.30;99.90;;;;;;4989091;28;20104;-66
2021/09/18 00:34:18;;;;;;;4.88;3.92;;;11.20;99.90;;;;;;4990787;28;20449;-69
2021/09/18 00:36:45;;;;;;;4.45;4.05;;;11.20;99.90;;;;;;4990838;28;20069;-69
2021/09/18 00:39:12;;;;;;;4.25;3.28;;;11.20;99.90;;;;;;4991046;28;20050;-68
2021/09/18 00:41:39;;;;;;;5.55;4.78;;;11.20;99.90;;;;;;4989452;28;20354;-69
2021/09/18 00:44:07;;;;;;;7.30;4.60;;;11.20;99.90;;;;;;4990732;28;20046;-69
2021/09/18 00:46:34;;;;;;;4.72;4.10;;;11.20;99.90;;;;;;4990603;28;20402;-66
2021/09/18 00:49:01;;;;;;;5.13;3.47;;;11.10;99.90;;;;;;4990639;28;20054;-68
2021/09/18 00:51:28;;;;;;;6.57;4.20;;;11.10;99.90;;;;;;4989250;28;20042;-68
2021/09/18 00:53:55;;;;;;;8.77;5.38;;;11.10;99.90;;;;;;4990415;28;20077;-66
2021/09/18 00:56:22;;;;;;;5.20;4.40;;;11.10;99.90;;;;;;4994735;28;20042;-65
2021/09/18 00:58:49;;;;;;;6.32;4.13;;;11.10;99.90;;;;;;4994729;28;20104;-66
2021/09/18 01:01:16;;;;;;;7.45;5.00;;;11.10;99.90;;;;;;4994919;28;20054;-69
2021/09/18 01:03:44;;;;;;;6.22;3.80;;;11.10;99.90;;;;;;5012203;23;20061;-63
2021/09/18 01:06:13;;;;;;;6.93;3.97;;;11.10;99.90;;;;;;5014107;28;20042;-65
2021/09/18 01:08:42;;;;;;;6.15;5.28;;;11.10;99.90;;;;;;5013963;28;20081;-63
2021/09/18 01:11:09;;;;;;;4.57;4.15;;;11.00;99.90;;;;;;5013930;28;20053;-63
2021/09/18 01:13:36;;;;;;;4.72;4.13;;;11.00;99.90;;;;;;5012274;28;20052;-68
2021/09/18 01:16:03;;;;;;;5.57;4.47;;;11.00;99.90;;;;;;5013885;28;20046;-64
2021/09/18 01:18:30;;;;;;;8.20;4.90;;;11.00;99.90;;;;;;5013657;28;20162;-64
2021/09/18 01:20:57;;;;;;;7.55;4.85;;;10.90;99.90;;;;;;5013909;28;20053;-66
2021/09/18 01:23:25;;;;;;;5.38;4.45;;;10.90;99.90;;;;;;5013933;28;20096;-64
2021/09/18 01:25:52;;;;;;;7.10;3.88;;;10.90;99.90;;;;;;5012406;28;20049;-68
2021/09/18 01:28:20;;;;;;;7.25;4.38;;;10.90;99.90;;;;;;5013638;28;20041;-65
2021/09/18 01:30:47;;;;;;;6.97;4.68;;;10.90;99.90;;;;;;5013765;28;20057;-65
2021/09/18 01:33:14;;;;;;;4.85;3.45;;;10.90;99.90;;;;;;5013729;28;20472;-62
2021/09/18 01:35:43;;;;;;;6.53;4.57;;;10.80;99.90;;;;;;5012629;28;20092;-62
2021/09/18 01:38:10;;;;;;;4.13;3.67;;;10.90;99.90;;;;;;5013573;28;20069;-65
2021/09/18 01:40:40;;;;;;;4.75;3.80;;;10.90;99.90;;;;;;5013428;28;20069;-66
2021/09/18 01:43:07;;;;;;;4.57;3.60;;;10.90;99.90;;;;;;5013831;28;20046;-67
2021/09/18 01:45:35;;;;;;;4.53;3.30;;;10.90;99.90;;;;;;5011932;28;20484;-62
2021/09/18 01:48:05;;;;;;;7.32;4.30;;;10.90;99.90;;;;;;5013180;28;20045;-65
2021/09/18 01:50:48;;;;;;;4.63;4.18;;;10.90;99.90;;;;;;5013294;28;20132;-63
2021/09/18 01:53:17;;;;;;;5.28;3.65;;;10.90;99.90;;;;;;5013140;28;20049;-64
2021/09/18 01:55:45;;;;;;;4.93;4.47;;;10.90;99.90;;;;;;5010604;28;20479;-65
2021/09/18 01:58:12;;;;;;;4.05;3.63;;;10.90;99.90;;;;;;5013010;28;20059;-62
2021/09/18 02:00:42;;;;;;;4.63;3.60;;;10.90;99.90;;;;;;5013072;28;20046;-67
2021/09/18 02:03:09;;;;;;;4.10;3.53;;;10.90;99.90;;;;;;5013045;28;20080;-62
2021/09/18 02:05:37;;;;;;;4.88;3.78;;;10.90;99.90;;;;;;5011701;28;20129;-62
2021/09/18 02:08:04;;;;;;;6.22;4.35;;;10.90;99.90;;;;;;5012768;28;20049;-63
2021/09/18 02:10:32;;;;;;;5.30;4.22;;;10.90;99.90;;;;;;5012749;28;20140;-64
2021/09/18 02:13:01;;;;;;;5.78;4.07;;;10.90;99.90;;;;;;5013003;28;20042;-64
2021/09/18 02:15:29;;;;;;;5.43;4.32;;;10.90;99.90;;;;;;5011334;28;20137;-63
2021/09/18 02:17:57;;;;;;;8.63;3.75;;;10.90;99.90;;;;;;5012614;28;20034;-63
2021/09/18 02:20:28;;;;;;;8.18;3.40;;;10.90;99.90;;;;;;5012855;28;20056;-65
2021/09/18 02:22:56;;;;;;;3.53;3.17;;;10.80;99.90;;;;;;5012499;28;20132;-65
2021/09/18 02:25:24;;;;;;;4.25;3.85;;;10.80;99.90;;;;;;5012497;28;20069;-61
2021/09/18 02:27:51;;;;;;;5.22;4.72;;;10.80;99.90;;;;;;5011337;28;20159;-64
2021/09/18 02:30:21;;;;;;;4.70;3.20;;;10.80;99.90;;;;;;5012626;28;20134;-62
2021/09/18 02:32:49;;;;;;;4.63;4.22;;;10.80;99.90;;;;;;5012458;28;20042;-63
2021/09/18 02:35:18;;;;;;;5.55;3.63;;;10.80;99.90;;;;;;5012316;28;20399;-66
2021/09/18 02:37:48;;;;;;;4.47;3.35;;;10.80;99.90;;;;;;5011209;28;20045;-64
2021/09/18 02:40:16;;;;;;;6.35;3.35;;;10.80;99.90;;;;;;5012512;28;20473;-64
2021/09/18 02:42:46;;;;;;;4.75;3.90;;;10.80;99.90;;;;;;5012255;28;20073;-63
2021/09/18 02:45:14;;;;;;;7.18;3.42;;;10.80;99.90;;;;;;5012441;28;20061;-62
2021/09/18 02:47:41;;;;;;;4.55;3.40;;;10.80;99.90;;;;;;5010930;28;20375;-63
2021/09/18 02:50:10;;;;;;;5.60;3.53;;;10.80;99.90;;;;;;5012225;28;20464;-62
2021/09/18 02:52:37;;;;;;;8.68;4.05;;;10.80;99.90;;;;;;5012061;28;20479;-64
2021/09/18 02:55:06;;;;;;;6.60;3.63;;;10.70;99.90;;;;;;5012131;28;20115;-63
2021/09/18 02:57:34;;;;;;;5.70;3.58;;;10.70;99.90;;;;;;5010478;28;20065;-64
2021/09/18 03:00:01;;;;;;;5.80;2.92;;;10.70;99.90;;;;;;5011929;28;20070;-63
2021/09/18 03:02:28;;;;;;;4.75;2.90;;;10.70;99.90;;;;;;5012059;28;20048;-64
2021/09/18 03:04:56;;;;;;;3.63;2.80;;;10.70;99.90;;;;;;5011569;28;20057;-68
2021/09/18 03:07:23;;;;;;;7.68;4.47;;;10.60;99.90;;;;;;5011746;28;20045;-62
2021/09/18 03:09:50;;;;;;;3.78;3.25;;;10.70;99.90;;;;;;5009019;28;20483;-65
2021/09/18 03:12:17;;;;;;;2.83;2.22;;;10.60;99.90;;;;;;5011850;28;20052;-64
2021/09/18 03:14:44;;;;;;;3.33;3.03;;;10.60;99.90;;;;;;5011807;28;20042;-63
2021/09/18 03:17:11;;;;;;;3.78;3.10;;;10.60;99.90;;;;;;5010928;28;20050;-63
2021/09/18 03:19:38;;;;;;;4.32;2.88;;;10.60;99.90;;;;;;5010235;28;20050;-65
2021/09/18 03:22:05;;;;;;;4.40;2.55;;;10.70;99.90;;;;;;5011563;28;20124;-64
2021/09/18 03:24:32;;;;;;;5.47;3.65;;;10.70;99.90;;;;;;5011471;28;20128;-63
2021/09/18 03:26:59;;;;;;;4.35;3.65;;;10.60;99.90;;;;;;5011476;28;20046;-62
2021/09/18 03:29:27;;;;;;;4.63;2.88;;;10.60;99.90;;;;;;5011472;28;20042;-63
2021/09/18 03:31:54;;;;;;;5.25;3.55;;;10.60;99.90;;;;;;5010306;28;20129;-62
2021/09/18 03:34:21;;;;;;;3.53;2.95;;;10.60;99.90;;;;;;5011429;28;20056;-62
2021/09/18 03:36:48;;;;;;;5.13;3.20;;;10.50;99.90;;;;;;5011456;28;20046;-62
2021/09/18 03:39:15;;;;;;;4.88;3.47;;;10.60;99.90;;;;;;5011339;28;20060;-66
2021/09/18 03:41:43;;;;;;;3.08;2.50;;;10.50;99.90;;;;;;5009617;28;20506;-62
2021/09/18 03:44:10;;;;;;;7.20;3.90;;;10.60;99.90;;;;;;5011496;28;20045;-62
2021/09/18 03:46:37;;;;;;;5.05;3.83;;;10.60;99.90;;;;;;5011253;28;20056;-62
2021/09/18 03:49:04;;;;;;;4.13;2.85;;;10.60;99.90;;;;;;5011421;28;20049;-62
2021/09/18 03:51:31;;;;;;;4.35;3.40;;;10.50;99.90;;;;;;5009600;28;20124;-62
2021/09/18 03:53:58;;;;;;;3.75;3.00;;;10.60;99.90;;;;;;5010764;28;20128;-63
2021/09/18 03:56:25;;;;;;;4.68;3.22;;;10.50;99.90;;;;;;5011005;28;20138;-64
2021/09/18 03:58:52;;;;;;;5.00;3.40;;;10.60;99.90;;;;;;5010889;28;20050;-67
2021/09/18 04:01:19;;;;;;;4.90;4.38;;;10.50;99.90;;;;;;5010765;28;20080;-63
2021/09/18 04:03:47;;;;;;;3.30;2.33;;;10.50;99.90;;;;;;5008973;28;20058;-65
2021/09/18 04:06:14;;;;;;;6.60;3.20;;;10.50;99.90;;;;;;5010622;28;20059;-64
2021/09/18 04:08:41;;;;;;;5.82;2.65;;;10.50;99.90;;;;;;5010814;28;20425;-64
2021/09/18 04:11:08;;;;;;;4.68;2.28;;;10.50;99.90;;;;;;5010696;28;20046;-64
2021/09/18 04:13:35;;;;;;;2.92;2.13;;;10.50;99.90;;;;;;5009354;28;20170;-65
2021/09/18 04:16:02;;;;;;;4.03;3.60;;;10.50;99.90;;;;;;5010715;28;20065;-63
2021/09/18 04:18:29;;;;;;;3.28;2.92;;;10.50;99.90;;;;;;5010939;28;20046;-63
2021/09/18 04:20:56;;;;;;;5.40;2.97;;;10.50;99.90;;;;;;5010931;28;20053;-65
2021/09/18 04:23:23;;;;;;;4.55;2.90;;;10.40;99.90;;;;;;5011179;28;20113;-62
2021/09/18 04:25:50;;;;;;;4.05;2.47;;;10.40;99.90;;;;;;5009143;28;20516;-62
2021/09/18 04:28:17;;;;;;;4.13;2.95;;;10.40;99.90;;;;;;5010308;28;20121;-62
2021/09/18 04:30:44;;;;;;;4.68;2.65;;;10.40;99.90;;;;;;5010252;28;20052;-62
2021/09/18 04:33:12;;;;;;;3.60;2.25;;;10.40;99.90;;;;;;5010790;28;20046;-62
2021/09/18 04:35:39;;;;;;;5.47;3.53;;;10.40;99.90;;;;;;5009115;28;20042;-67
2021/09/18 04:38:06;;;;;;;4.30;3.15;;;10.40;99.90;;;;;;5010364;28;20461;-65
2021/09/18 04:40:33;;;;;;;4.13;2.75;;;10.40;99.90;;;;;;5010528;28;20060;-64
2021/09/18 04:43:00;;;;;;;3.55;2.55;;;10.30;99.90;;;;;;5010516;28;20050;-64
2021/09/18 04:45:28;;;;;;;3.83;2.38;;;10.30;99.90;;;;;;5009325;28;20084;-65
2021/09/18 04:47:55;;;;;;;4.63;3.20;;;10.30;99.90;;;;;;5009759;28;20061;-65
2021/09/18 04:50:22;;;;;;;5.82;2.92;;;10.30;99.90;;;;;;5010151;28;20041;-64
2021/09/18 04:52:49;;;;;;;4.55;2.58;;;10.30;99.90;;;;;;5010365;28;20046;-64
2021/09/18 04:55:16;;;;;;;4.95;3.15;;;10.30;99.90;;;;;;5010492;28;20395;-63
2021/09/18 04:57:43;;;;;;;5.78;3.30;;;10.30;99.90;;;;;;5008700;28;20045;-62
2021/09/18 05:00:11;;;;;;;6.25;3.25;;;10.30;99.90;;;;;;5010235;28;20387;-63
2021/09/18 05:02:38;;;;;;;3.83;3.42;;;10.30;99.90;;;;;;5009871;28;20068;-64
2021/09/18 05:05:07;;;;;;;5.38;2.70;;;10.30;99.90;;;;;;5010189;28;20042;-65
2021/09/18 05:07:34;;;;;;;4.05;2.30;;;10.30;99.90;;;;;;5008702;28;20117;-62
2021/09/18 05:10:01;;;;;;;4.25;2.55;;;10.30;99.90;;;;;;5010092;28;20128;-62
2021/09/18 05:12:28;;;;;;;4.43;2.90;;;10.30;99.90;;;;;;5010016;28;20130;-63
2021/09/18 05:14:55;;;;;;;4.25;2.75;;;10.30;99.90;;;;;;5010031;28;20124;-64
2021/09/18 05:17:22;;;;;;;5.63;3.13;;;10.30;99.90;;;;;;5010600;28;20042;-62
2021/09/18 05:19:49;;;;;;;3.60;2.13;;;10.30;99.90;;;;;;5009358;28;20038;-64
2021/09/18 05:22:16;;;;;;;2.85;1.90;;;10.30;99.90;;;;;;5010001;28;20428;-66
2021/09/18 05:24:43;;;;;;;5.28;2.92;;;10.30;99.90;;;;;;5010056;28;20068;-64
2021/09/18 05:27:10;;;;;;;5.68;3.13;;;10.30;99.90;;;;;;5010009;28;20050;-65
2021/09/18 05:29:39;;;;;;;4.20;2.53;;;10.30;99.90;;;;;;5008760;28;20050;-63
2021/09/18 05:32:06;;;;;;;7.25;3.75;;;10.30;99.90;;;;;;5010232;28;20061;-65
2021/09/18 05:34:33;;;;;;;5.50;2.90;;;10.30;99.90;;;;;;5009893;28;20042;-65
2021/09/18 05:37:00;;;;;;;3.30;2.47;;;10.30;99.90;;;;;;5009946;28;20052;-66
2021/09/18 05:39:27;;;;;;;5.47;2.80;;;10.30;99.90;;;;;;5008866;28;20197;-66
2021/09/18 05:41:54;;;;;;;2.50;1.90;;;10.30;99.90;;;;;;5012848;28;20054;-63
2021/09/18 05:44:21;;;;;;;4.40;3.22;;;10.30;99.90;;;;;;5013496;28;20121;-65
2021/09/18 05:46:49;;;;;;;2.97;2.20;;;10.30;99.90;;;;;;5013244;28;20127;-62
2021/09/18 05:49:16;;;;;;;3.20;2.05;;;10.30;99.90;;;;;;5013370;28;20046;-64
2021/09/18 05:51:43;;;;;;;2.45;2.10;;;10.30;99.90;;;;;;5012061;28;20062;-63
2021/09/18 05:54:10;;;;;;;2.45;2.05;;;10.30;99.90;;;;;;5013453;28;20045;-64
2021/09/18 05:56:37;;;;;;;3.47;2.55;;;10.30;99.90;;;;;;5013251;28;20113;-64
2021/09/18 05:59:05;;;;;;;2.50;1.80;;;10.30;99.90;;;;;;5013185;28;20049;-63
2021/09/18 06:01:35;;;;;;;3.40;2.30;;;10.30;99.90;;;;;;5011843;28;20046;-66
2021/09/18 06:04:03;;;;;;;3.38;2.65;;;10.30;99.90;;;;;;5012145;28;20042;-63
2021/09/18 06:06:30;;;;;;;3.15;2.25;;;10.30;99.90;;;;;;5011996;28;20133;-69
2021/09/18 06:08:57;;;;;;;3.75;3.25;;;10.30;99.90;;;;;;5011980;28;20173;-65
2021/09/18 06:11:25;;;;;;;3.83;3.05;;;10.30;99.90;;;;;;5011922;28;20121;-63
2021/09/18 06:13:53;;;;;;;3.40;2.67;;;10.30;99.90;;;;;;5009930;28;20057;-69
2021/09/18 06:16:22;;;;;;;2.40;1.80;;;10.30;99.90;;;;;;5011504;28;20041;-65
2021/09/18 06:18:51;;;;;;;3.33;2.30;;;10.30;99.90;;;;;;5011741;28;20445;-66
2021/09/18 06:21:19;;;;;;;3.20;2.90;;;10.30;99.90;;;;;;5011659;28;20465;-66
2021/09/18 06:23:46;;;;;;;4.35;2.67;;;10.30;99.90;;;;;;5010205;28;20176;-67
2021/09/18 06:26:16;;;;;;;3.65;2.17;;;10.30;99.90;;;;;;5011684;28;20046;-62
2021/09/18 06:28:44;;;;;;;3.25;2.45;;;10.30;99.90;;;;;;5011417;28;20124;-62
2021/09/18 06:31:11;;;;;;;6.18;3.30;;;10.40;99.90;;;;;;5011772;28;20112;-65
2021/09/18 06:33:38;;;;;;;3.88;3.17;;;10.40;99.90;;;;;;5010234;28;20052;-63
2021/09/18 06:36:06;;;;;;;3.15;2.30;;;10.40;99.90;;;;;;5011262;28;20232;-67
2021/09/18 06:38:33;;;;;;;5.55;2.75;;;10.40;99.90;;;;;;5011382;28;20052;-63
2021/09/18 06:41:00;;;;;;;4.10;3.00;;;10.40;99.90;;;;;;5011524;28;20100;-66
2021/09/18 06:43:32;;;;;;;5.43;2.70;;;10.40;99.90;;;;;;5011551;28;20052;-66
2021/09/18 06:45:59;;;;;;;3.60;2.53;;;10.40;99.90;;;;;;5010167;28;20065;-66
2021/09/18 06:48:27;;;;;;;4.32;2.50;;;10.40;99.90;;;;;;5011127;28;20077;-63
2021/09/18 06:50:54;;;;;;;4.63;3.20;;;10.40;99.90;;;;;;5011264;28;20535;-62
2021/09/18 06:53:21;;;;;;;4.32;2.60;;;10.40;99.90;;;;;;5010085;28;20538;-64
2021/09/18 06:55:48;;;;;;;3.75;2.67;;;10.40;99.90;;;;;;5009789;28;20054;-65
2021/09/18 06:58:15;;;;;;;3.25;2.67;;;10.40;99.90;;;;;;5011089;28;20072;-64
2021/09/18 07:00:42;;;;;;;6.57;2.20;;;10.50;99.90;;;;;;5011432;28;20060;-65
2021/09/18 07:03:09;;;;;;;5.13;3.03;;;10.50;99.90;;;;;;4971139;28;1154721;-66
2021/09/18 07:05:37;;;;;;;4.78;2.40;;;10.50;99.90;;;;;;5010646;28;20077;-65
2021/09/18 07:08:04;;;;;;;4.78;2.72;;;10.50;99.90;;;;;;5011915;28;20449;-63
2021/09/18 07:10:31;;;;;;;4.40;2.72;;;10.50;99.90;;;;;;5011720;28;20136;-64
2021/09/18 07:12:58;;;;;;;3.05;2.75;;;10.50;99.90;;;;;;5011743;28;20038;-63
2021/09/18 07:15:26;;;;;;;4.18;3.13;;;10.50;99.90;;;;;;5012000;28;20054;-66
2021/09/18 07:17:53;;;;;;;3.65;2.85;;;10.50;99.90;;;;;;5010455;28;20076;-63
2021/09/18 07:20:21;;;;;;;5.75;3.20;;;10.50;99.90;;;;;;5011873;28;20488;-68
2021/09/18 07:22:49;;;;;;;5.07;3.03;;;10.50;99.90;;;;;;5011715;28;20042;-64
2021/09/18 07:25:16;;;;;;;3.72;2.72;;;10.50;99.90;;;;;;5011694;28;20053;-66
2021/09/18 07:27:43;;;;;;;2.97;2.67;;;10.50;99.90;;;;;;5010226;28;20045;-64
2021/09/18 07:30:11;;;;;;;6.20;3.53;;;10.60;99.90;;;;;;5011371;28;20042;-63
2021/09/18 07:32:38;;;;;;;4.88;2.55;;;10.60;99.90;;;;;;5011641;28;20128;-64
2021/09/18 07:35:06;;;;;;;12.40;4.95;;;10.60;99.90;;;;;;5011233;28;20065;-65
2021/09/18 07:37:35;;;;;;;3.78;2.50;;;10.60;99.90;;;;;;5009958;28;20042;-63
2021/09/18 07:40:08;;;;;;;3.40;3.03;;;10.70;99.90;;;;;;5011304;28;20468;-69
2021/09/18 07:42:35;;;;;;;5.00;2.78;;;10.60;99.90;;;;;;5011287;28;20037;-66
2021/09/18 07:45:05;;;;;;;4.18;3.17;;;10.70;99.90;;;;;;5011362;28;20376;-66
2021/09/18 07:47:32;;;;;;;5.03;2.30;;;10.70;99.90;;;;;;5009812;28;20057;-65
2021/09/18 07:50:00;;;;;;;3.60;3.30;;;10.70;99.90;;;;;;5010962;28;20076;-66
2021/09/18 07:52:27;;;;;;;3.95;3.28;;;10.70;99.90;;;;;;5010996;28;20054;-64
2021/09/18 07:54:54;;;;;;;5.03;3.40;;;10.80;99.90;;;;;;5011050;28;20053;-63
2021/09/18 07:57:41;;;;;;;3.97;2.58;;;10.70;99.90;;;;;;5010015;28;20048;-65
2021/09/18 08:00:09;;;;;;;6.15;2.40;;;10.80;99.90;;;;;;5010819;28;20042;-63
2021/09/18 08:02:36;;;;;;;4.30;3.67;;;10.80;99.90;;;;;;5010843;28;20403;-66
2021/09/18 08:05:04;;;;;;;6.13;3.30;;;10.80;99.90;;;;;;5010376;28;20053;-63
2021/09/18 08:07:31;;;;;;;5.45;3.47;;;10.80;99.90;;;;;;5009258;28;20063;-63
2021/09/18 08:09:59;;;;;;;3.60;2.83;;;10.80;99.90;;;;;;5010530;28;20042;-65
2021/09/18 08:12:27;;;;;;;3.65;3.20;;;10.80;99.90;;;;;;5010754;28;20049;-64
2021/09/18 08:14:54;;;;;;;2.83;2.33;;;10.80;99.90;;;;;;5010729;28;20054;-64
2021/09/18 08:17:21;;;;;;;3.85;2.97;;;10.80;99.90;;;;;;5010624;28;20040;-65
2021/09/18 08:19:48;;;;;;;5.45;3.33;;;10.80;99.90;;;;;;5009380;28;20050;-65
2021/09/18 08:22:15;;;;;;;3.58;2.95;;;10.90;99.90;;;;;;5010485;28;20141;-67
2021/09/18 08:24:42;;;;;;;3.60;3.15;;;10.90;99.90;;;;;;5010508;28;20476;-63
2021/09/18 08:27:10;;;;;;;4.60;3.22;;;10.80;99.90;;;;;;5010703;28;20582;-62
2021/09/18 08:29:37;;;;;;;2.60;2.22;;;10.80;99.90;;;;;;5009138;28;20053;-62
2021/09/18 08:32:04;;;;;;;6.30;2.80;;;10.80;99.90;;;;;;5010498;28;20437;-66
2021/09/18 08:34:32;;;;;;;5.55;3.13;;;10.90;99.90;;;;;;5010416;28;20046;-66
2021/09/18 08:36:59;;;;;;;3.85;2.80;;;10.80;99.90;;;;;;5010522;28;20077;-62
2021/09/18 08:39:26;;;;;;;4.03;3.10;;;10.80;99.90;;;;;;5010537;28;20046;-63
2021/09/18 08:41:53;;;;;;;4.15;2.70;;;10.80;99.90;;;;;;5009269;28;20046;-64
2021/09/18 08:44:20;;;;;;;3.25;2.60;;;10.80;99.90;;;;;;5010277;28;20069;-64
2021/09/18 08:46:49;;;;;;;4.18;3.38;;;10.80;99.90;;;;;;5010309;28;20046;-65
2021/09/18 08:49:17;;;;;;;2.75;2.38;;;10.80;99.90;;;;;;5010288;28;20136;-64
2021/09/18 08:51:44;;;;;;;6.45;3.53;;;10.80;99.90;;;;;;5009199;28;20536;-64
2021/09/18 08:54:11;;;;;;;4.80;3.25;;;10.80;99.90;;;;;;5010220;28;20121;-63
2021/09/18 08:56:39;;;;;;;5.93;3.58;;;10.80;99.90;;;;;;5010070;28;20064;-62
2021/09/18 08:59:06;;;;;;;4.82;2.80;;;10.80;99.90;;;;;;5009996;28;20187;-63
2021/09/18 09:01:34;;;;;;;3.95;2.95;;;10.70;99.90;;;;;;5008838;28;20042;-63
2021/09/18 09:04:07;;;;;;;4.60;3.08;;;10.70;99.90;;;;;;5010151;28;20045;-65
2021/09/18 09:06:52;;;;;;;5.45;3.40;;;10.70;99.90;;;;;;5009070;28;20053;-64
2021/09/18 09:09:19;;;;;;;5.25;2.90;;;10.70;99.90;;;;;;5010420;28;20046;-64
2021/09/18 09:11:52;;;;;;;2.78;2.47;;;10.70;99.90;;;;;;5008850;28;20042;-65
2021/09/18 09:14:19;;;;;;;2.80;2.22;;;10.70;99.90;;;;;;5010178;28;20451;-64
2021/09/18 09:17:06;;;;;;;3.67;2.85;;;10.70;99.90;;;;;;5012972;28;20053;-64
2021/09/18 09:19:40;;;;;;;3.70;2.97;;;10.70;99.90;;;;;;5012770;28;20116;-62
2021/09/18 09:22:08;;;;;;;5.97;2.50;;;10.60;99.90;;;;;;5013932;28;20051;-65
2021/09/18 09:24:35;;;;;;;4.50;2.90;;;10.60;99.90;;;;;;5014060;28;20046;-63
2021/09/18 09:27:13;;;;;;;5.20;2.70;;;10.60;99.90;;;;;;5013970;28;20446;-63
2021/09/18 09:29:48;;;;;;;5.70;3.60;;;10.60;99.90;;;;;;5012518;28;20050;-64
2021/09/18 09:32:44;;;;;;;3.70;2.45;;;10.60;99.90;;;;;;5014010;28;20057;-67
2021/09/18 09:35:14;;;;;;;2.85;2.47;;;10.60;99.90;;;;;;5004910;28;20049;-64
2021/09/18 09:37:52;;;;;;;3.42;2.60;;;10.60;99.90;;;;;;5012128;28;20092;-65
2021/09/18 09:40:34;;;;;;;4.63;2.97;;;10.50;99.90;;;;;;5013643;28;20066;-62
2021/09/18 09:43:03;;;;;;;5.18;3.22;;;10.50;99.90;;;;;;5013718;28;20072;-64
2021/09/18 09:45:30;;;;;;;3.65;2.53;;;10.50;99.90;;;;;;5012084;28;20049;-65
2021/09/18 09:48:08;;;;;;;5.22;3.10;;;10.50;99.90;;;;;;5013492;28;20043;-63
2021/09/18 09:50:37;;;;;;;3.15;2.78;;;10.50;99.90;;;;;;5013294;28;20077;-63
2021/09/18 09:53:06;;;;;;;3.75;2.80;;;10.50;99.90;;;;;;5013295;28;20527;-65
2021/09/18 09:55:38;;;;;;;5.53;3.17;;;10.50;99.90;;;;;;5011612;28;20104;-64
2021/09/18 09:58:09;;;;;;;4.10;2.92;;;10.50;99.90;;;;;;5012745;28;20038;-64
2021/09/18 10:00:42;;;;;;;5.47;3.15;;;10.50;99.90;;;;;;5013161;28;20049;-66
2021/09/18 10:03:10;;;;;;;5.63;2.28;;;10.50;99.90;;;;;;5012828;28;20058;-64
2021/09/18 10:05:37;;;;;;;3.75;2.60;;;10.50;99.90;;;;;;5011883;28;20045;-63
2021/09/18 10:08:05;;;;;;;5.55;3.78;;;10.50;99.90;;;;;;5013072;28;20125;-65
2021/09/18 10:10:33;;;;;;;4.35;2.53;;;10.50;99.90;;;;;;5013089;28;20103;-64
2021/09/18 10:13:01;;;;;;;4.53;2.97;;;10.50;99.90;;;;;;5012922;28;20099;-66
2021/09/18 10:15:29;;;;;;;4.22;3.42;;;10.50;99.90;;;;;;5011624;28;20050;-63
2021/09/18 10:17:59;;;;;;;2.92;2.70;;;10.50;99.90;;;;;;5012883;28;20125;-66
2021/09/18 10:23:18;;;;;;;5.60;3.08;;;10.50;99.90;;;;;;5012839;28;20038;-62
2021/09/18 10:25:51;;;;;;;5.68;3.00;;;10.50;99.90;;;;;;5026447;28;20049;-64
2021/09/18 10:28:22;;;;;;;3.13;2.72;;;10.50;99.90;;;;;;5012866;28;20148;-65
2021/09/18 10:30:54;;;;;;;3.08;2.75;;;10.50;99.90;;;;;;5012874;28;20050;-65
2021/09/18 10:33:33;;;;;;;4.82;4.10;;;10.60;99.90;;;;;;5012872;28;20046;-65
2021/09/18 10:36:07;;;;;;;6.32;4.03;;;10.60;99.90;;;;;;5011209;28;20042;-66
2021/09/18 10:38:36;;;;;;;3.05;2.72;;;10.60;99.90;;;;;;5012689;28;20073;-64
2021/09/18 10:41:05;;;;;;;4.53;3.20;;;10.50;99.90;;;;;;5012533;28;20042;-68
2021/09/18 10:43:40;;;;;;;3.55;2.97;;;10.50;99.90;;;;;;5011043;28;20133;-66
2021/09/18 10:46:10;;;;;;;3.53;2.88;;;10.50;99.90;;;;;;5012187;28;20096;-64
2021/09/18 10:48:45;;;;;;;5.90;3.25;;;10.60;99.90;;;;;;5012229;28;20045;-63
2021/09/18 10:51:33;;;;;;;4.60;3.72;;;10.60;99.90;;;;;;5012499;28;20104;-63
2021/09/18 10:54:15;;;;;;;9.82;4.22;;;10.70;99.90;;;;;;5011053;28;20041;-64
2021/09/18 10:57:01;;;;;;;4.53;3.30;;;10.70;99.90;;;;;;5012041;28;20069;-64
2021/09/18 10:59:37;;;;;;;5.43;2.58;;;10.80;99.90;;;;;;5010491;28;20111;-65
2021/09/18 11:02:29;;;;;;;4.00;3.70;;;10.80;99.90;;;;;;5011883;28;20050;-64
2021/09/18 11:04:57;;;;;;;4.18;2.85;;;10.80;99.90;;;;;;5010205;28;20069;-65
2021/09/18 11:07:39;;;;;;;6.68;3.10;;;10.90;99.90;;;;;;5009011;28;20153;-70
2021/09/18 11:10:09;;;;;;;4.75;2.92;;;10.90;99.90;;;;;;5007668;28;20041;-62
2021/09/18 11:12:36;;;;;;;5.78;3.28;;;10.90;99.90;;;;;;5008920;28;20082;-65
2021/09/18 11:15:07;;;;;;;5.75;4.03;;;11.00;99.90;;;;;;5008846;28;20081;-65
2021/09/18 11:17:38;;;;;;;4.32;2.80;;;11.00;99.90;;;;;;5007330;28;20068;-70
2021/09/18 11:20:17;;;;;;;6.63;3.65;;;11.00;99.90;;;;;;5008484;28;20042;-71
2021/09/18 11:22:45;;;;;;;3.63;3.17;;;11.10;99.90;;;;;;5008504;28;20070;-63
2021/09/18 11:25:36;;;;;;;6.53;3.50;;;11.10;99.90;;;;;;5008635;28;20080;-67
2021/09/18 11:28:14;;;;;;;3.83;3.20;;;11.10;99.90;;;;;;5007276;28;20046;-68
2021/09/18 11:30:52;;;;;;;5.47;3.35;;;11.20;99.90;;;;;;5008496;28;20066;-66
2021/09/18 11:33:21;;;;;;;3.83;2.42;;;11.20;99.90;;;;;;5008479;28;20080;-65
2021/09/18 11:36:00;;;;;;;2.92;2.58;;;11.30;99.90;;;;;;5008383;28;20073;-67
2021/09/18 11:38:30;;;;;;;3.35;2.35;;;11.40;99.90;;;;;;5011033;28;20134;-65
2021/09/18 11:41:07;;;;;;;4.47;3.13;;;11.40;99.90;;;;;;5011494;28;20053;-64
2021/09/18 11:43:35;;;;;;;6.05;2.83;;;11.50;99.90;;;;;;5009975;28;20129;-64
2021/09/18 11:46:04;;;;;;;5.30;2.65;;;11.50;99.90;;;;;;5011275;28;20053;-66
2021/09/18 11:48:31;;;;;;;4.65;3.00;;;11.50;99.90;;;;;;5011011;28;20053;-66
2021/09/18 11:51:03;;;;;;;4.13;3.10;;;11.40;99.90;;;;;;5011320;28;20080;-63
2021/09/18 11:53:30;;;;;;;4.18;2.90;;;11.50;99.90;;;;;;5009806;28;20065;-63
2021/09/18 11:55:57;;;;;;;5.25;3.65;;;11.40;99.90;;;;;;5011069;28;20065;-63
2021/09/18 11:58:34;;;;;;;3.20;2.67;;;11.40;99.90;;;;;;5011077;28;20076;-67
2021/09/18 12:01:07;;;;;;;5.07;3.72;;;11.40;99.90;;;;;;5010959;28;20136;-63
2021/09/18 12:03:38;;;;;;;3.78;3.30;;;11.40;99.90;;;;;;5009354;28;20353;-67
2021/09/18 12:06:07;;;;;;;3.95;2.45;;;11.40;99.90;;;;;;5011039;28;20038;-66
2021/09/18 12:08:36;;;;;;;3.15;2.63;;;11.60;99.90;;;;;;5010730;28;20384;-71
2021/09/18 12:11:09;;;;;;;4.47;3.33;;;11.70;99.90;;;;;;5010991;28;20512;-65
2021/09/18 12:13:41;;;;;;;5.95;3.53;;;11.80;99.90;;;;;;5009464;28;20515;-66
2021/09/18 12:16:09;;;;;;;3.55;3.25;;;12.00;99.90;;;;;;5010762;28;20095;-64
2021/09/18 12:18:45;;;;;;;5.03;2.28;;;12.00;99.90;;;;;;5011011;28;20452;-64
2021/09/18 12:21:21;;;;;;;3.92;2.83;;;12.00;99.90;;;;;;5010840;28;20134;-66
2021/09/18 12:23:54;;;;;;;4.03;2.50;;;12.00;99.90;;;;;;5009528;28;20127;-64
2021/09/18 12:26:21;;;;;;;3.97;2.85;;;12.00;99.90;;;;;;5010547;28;20046;-65
2021/09/18 12:28:48;;;;;;;2.58;1.95;;;12.00;99.90;;;;;;5010641;28;20115;-64
2021/09/18 12:31:20;;;;;;;2.70;2.40;;;12.00;99.90;;;;;;5010529;28;20467;-69
2021/09/18 12:33:50;;;;;;;3.20;2.30;;;12.00;99.90;;;;;;5009045;28;22080;-64
2021/09/18 12:36:19;;;;;;;5.20;2.78;;;12.00;99.90;;;;;;5010268;28;20444;-66
2021/09/18 12:38:48;;;;;;;3.00;2.57;;;12.20;99.90;;;;;;5010393;28;20076;-63
2021/09/18 12:41:21;;;;;;;3.03;2.42;;;12.30;99.90;;;;;;5025536;28;20279;-64
2021/09/18 12:43:59;;;;;;;3.85;3.10;;;12.40;99.90;;;;;;5009199;28;20080;-66
2021/09/18 12:46:28;;;;;;;3.00;2.70;;;12.40;99.90;;;;;;5010411;28;20065;-65
2021/09/18 12:48:57;;;;;;;4.15;2.42;;;12.40;99.90;;;;;;5010051;28;20092;-66
2021/09/18 12:51:25;;;;;;;4.38;3.03;;;12.50;99.90;;;;;;5009387;28;20061;-67
2021/09/18 12:53:54;;;;;;;3.53;2.58;;;12.50;99.90;;;;;;5008759;28;20110;-68
2021/09/18 12:56:21;;;;;;;5.80;2.88;;;12.80;99.90;;;;;;5010170;28;20042;-67
2021/09/18 12:58:50;;;;;;;3.05;1.77;;;13.00;99.90;;;;;;5010210;28;20526;-66